createdAt,value
2023-02-05T00:02:09.191Z,5.87
2023-02-05T00:04:38.820Z,5.63
2023-02-05T00:07:08.887Z,5.20
2023-02-05T00:09:40.355Z,4.87
2023-02-05T00:12:10.221Z,5.43
2023-02-05T00:14:41.065Z,4.90
2023-02-05T00:17:11.756Z,5.17
2023-02-05T00:19:45.233Z,5.43
2023-02-05T00:22:19.357Z,4.87
2023-02-05T00:24:49.531Z,4.40
2023-02-05T00:27:26.231Z,7.80
2023-02-05T00:29:56.545Z,5.07
2023-02-05T00:32:27.356Z,4.40
2023-02-05T00:34:57.577Z,4.53
2023-02-05T00:37:28.443Z,5.57
2023-02-05T00:39:58.705Z,4.87
2023-02-05T00:42:29.088Z,4.20
2023-02-05T00:45:01.894Z,4.80
2023-02-05T00:47:32.117Z,4.10
2023-02-05T00:50:02.526Z,4.73
2023-02-05T00:52:35.072Z,6.57
2023-02-05T00:55:06.074Z,4.43
2023-02-05T00:57:36.156Z,4.37
2023-02-05T01:00:08.170Z,4.00
2023-02-05T01:02:37.454Z,4.57
2023-02-05T01:05:07.919Z,4.13
2023-02-05T01:07:37.644Z,3.77
2023-02-05T01:10:07.913Z,4.03
2023-02-05T01:12:38.389Z,3.80
2023-02-05T01:15:12.527Z,3.37
2023-02-05T01:17:39.876Z,2.70
2023-02-05T01:20:14.060Z,2.53
2023-02-05T01:22:43.983Z,2.30
2023-02-05T01:25:14.115Z,2.40
2023-02-05T01:27:44.283Z,2.50
2023-02-05T01:30:14.975Z,2.37
2023-02-05T01:32:45.382Z,2.43
2023-02-05T01:35:15.706Z,2.17
2023-02-05T01:37:49.477Z,3.13
2023-02-05T01:40:21.425Z,2.47
2023-02-05T01:42:52.501Z,2.30
2023-02-05T01:45:40.327Z,2.37
2023-02-05T01:48:08.786Z,2.03
2023-02-05T01:50:40.541Z,1.90
2023-02-05T01:53:15.567Z,1.93
2023-02-05T01:55:45.071Z,1.90
2023-02-05T01:58:11.765Z,2.37
2023-02-05T02:00:37.969Z,3.40
2023-02-05T02:03:07.056Z,2.77
2023-02-05T02:05:36.586Z,2.13
2023-02-05T02:08:08.267Z,2.50
2023-02-05T02:10:37.494Z,2.80
2023-02-05T02:13:08.215Z,2.50
2023-02-05T02:15:39.605Z,2.60
2023-02-05T02:18:26.692Z,4.33
2023-02-05T02:21:11.565Z,2.50
2023-02-05T02:23:56.229Z,2.73
2023-02-05T02:27:04.604Z,2.70
2023-02-05T02:29:38.473Z,2.27
2023-02-05T02:32:18.304Z,2.40
2023-02-05T02:34:54.147Z,2.10
2023-02-05T02:37:33.668Z,2.30
2023-02-05T02:40:19.625Z,2.33
2023-02-05T02:43:07.265Z,4.40
2023-02-05T02:45:50.473Z,2.10
2023-02-05T02:48:23.653Z,2.60
2023-02-05T02:50:52.296Z,1.60
2023-02-05T02:53:27.323Z,2.03
2023-02-05T02:55:58.428Z,2.10
2023-02-05T02:58:29.654Z,2.50
2023-02-05T03:00:57.523Z,2.30
2023-02-05T03:03:25.865Z,2.07
2023-02-05T03:05:57.694Z,2.10
2023-02-05T03:08:44.692Z,2.50
2023-02-05T03:11:19.194Z,2.00
2023-02-05T03:13:50.240Z,3.67
2023-02-05T03:16:16.858Z,2.87
2023-02-05T03:18:43.113Z,2.53
2023-02-05T03:21:18.584Z,4.13
2023-02-05T03:23:49.062Z,2.40
2023-02-05T03:26:34.324Z,2.50
2023-02-05T03:29:07.848Z,3.23
2023-02-05T03:31:49.380Z,11.60
2023-02-05T03:34:33.717Z,2.27
2023-02-05T03:37:10.371Z,2.57
2023-02-05T03:40:09.374Z,2.83
2023-02-05T03:42:44.972Z,2.20
2023-02-05T03:45:15.379Z,2.30
2023-02-05T03:47:51.786Z,2.90
2023-02-05T03:50:42.168Z,1.90
2023-02-05T03:53:24.825Z,2.40
2023-02-05T03:56:00.640Z,2.93
2023-02-05T03:58:33.283Z,2.23
2023-02-05T04:01:00.010Z,2.37
2023-02-05T04:03:26.254Z,2.60
2023-02-05T04:05:56.546Z,2.67
2023-02-05T04:08:31.199Z,2.00
2023-02-05T04:11:01.486Z,2.40
2023-02-05T04:13:32.139Z,2.10
2023-02-05T04:16:02.388Z,2.13
2023-02-05T04:18:32.606Z,2.63
2023-02-05T04:21:02.723Z,2.50
2023-02-05T04:23:32.775Z,2.20
2023-02-05T04:26:06.892Z,2.27
2023-02-05T04:28:37.673Z,2.20
2023-02-05T04:31:09.014Z,2.43
2023-02-05T04:33:39.578Z,2.07
2023-02-05T04:36:09.267Z,2.00
2023-02-05T04:38:39.026Z,2.17
2023-02-05T04:41:09.692Z,2.10
2023-02-05T04:43:43.647Z,2.37
2023-02-05T04:46:14.186Z,2.37
2023-02-05T04:48:44.801Z,1.90
2023-02-05T04:51:15.439Z,2.20
2023-02-05T04:53:45.955Z,2.20
2023-02-05T04:56:17.364Z,2.10
2023-02-05T04:58:46.962Z,2.37
2023-02-05T05:01:22.788Z,1.70
2023-02-05T05:03:50.947Z,2.17
2023-02-05T05:06:21.871Z,2.13
2023-02-05T05:08:53.441Z,2.20
2023-02-05T05:11:22.507Z,2.30
2023-02-05T05:13:53.337Z,2.40
2023-02-05T05:16:23.593Z,2.27
2023-02-05T05:18:57.519Z,1.93
2023-02-05T05:21:27.024Z,2.30
2023-02-05T05:23:57.503Z,2.13
2023-02-05T05:26:28.264Z,2.50
2023-02-05T05:28:58.414Z,2.27
2023-02-05T05:31:28.345Z,2.30
2023-02-05T05:33:58.624Z,2.00
2023-02-05T05:36:32.319Z,2.53
2023-02-05T05:39:21.139Z,2.33
2023-02-05T05:42:05.508Z,2.50
2023-02-05T05:44:36.369Z,2.53
2023-02-05T05:47:02.758Z,2.07
2023-02-05T05:49:28.997Z,2.70
2023-02-05T05:52:00.694Z,2.77
2023-02-05T05:54:27.223Z,2.50
2023-02-05T05:56:53.403Z,2.60
2023-02-05T05:59:19.595Z,2.37
2023-02-05T06:01:52.560Z,3.73
2023-02-05T06:04:18.706Z,2.40
2023-02-05T06:06:44.960Z,5.70
2023-02-05T06:09:12.565Z,4.80
2023-02-05T06:11:45.211Z,3.03
2023-02-05T06:14:16.219Z,2.80
2023-02-05T06:16:45.770Z,2.20
2023-02-05T06:19:16.374Z,2.40
2023-02-05T06:21:46.365Z,2.63
2023-02-05T06:24:16.838Z,2.33
2023-02-05T06:26:47.414Z,2.80
2023-02-05T06:29:20.780Z,3.03
2023-02-05T06:31:51.106Z,3.20
2023-02-05T06:34:21.892Z,2.70
2023-02-05T06:36:52.144Z,2.77
2023-02-05T06:39:24.924Z,3.13
2023-02-05T06:41:53.412Z,2.47
2023-02-05T06:44:24.380Z,2.50
2023-02-05T06:46:56.655Z,2.70
2023-02-05T06:49:27.190Z,2.70
2023-02-05T06:51:57.175Z,3.03
2023-02-05T06:54:28.118Z,2.93
2023-02-05T06:56:58.590Z,2.87
2023-02-05T06:59:28.948Z,3.27
2023-02-05T07:01:59.143Z,3.20
2023-02-05T07:04:32.424Z,3.27
2023-02-05T07:07:02.232Z,3.17
2023-02-05T07:09:32.992Z,3.00
2023-02-05T07:12:03.002Z,3.30
2023-02-05T07:14:37.781Z,3.30
2023-02-05T07:17:03.855Z,3.83
2023-02-05T07:19:34.849Z,4.13
2023-02-05T07:22:10.131Z,3.70
2023-02-05T07:24:38.492Z,2.90
2023-02-05T07:27:08.728Z,2.87
2023-02-05T07:29:39.564Z,3.33
2023-02-05T07:32:09.777Z,3.53
2023-02-05T07:34:39.668Z,3.30
2023-02-05T07:37:12.386Z,4.13
2023-02-05T07:39:43.478Z,3.10
2023-02-05T07:42:13.654Z,3.83
2023-02-05T07:44:43.922Z,3.30
2023-02-05T07:47:16.376Z,3.20
2023-02-05T07:49:45.263Z,3.33
2023-02-05T07:52:15.406Z,3.70
2023-02-05T07:54:45.626Z,3.70
2023-02-05T07:57:18.515Z,3.80
2023-02-05T07:59:48.751Z,4.70
2023-02-05T08:02:19.004Z,4.23
2023-02-05T08:04:49.548Z,4.60
2023-02-05T08:07:19.598Z,5.00
2023-02-05T08:09:50.096Z,4.90
2023-02-05T08:12:20.075Z,4.53
2023-02-05T08:14:54.370Z,5.50
2023-02-05T08:17:24.786Z,4.90
2023-02-05T08:19:55.431Z,4.80
2023-02-05T08:22:25.912Z,4.90
2023-02-05T08:24:56.405Z,5.00
2023-02-05T08:27:28.688Z,4.63
2023-02-05T08:29:57.116Z,4.70
2023-02-05T08:32:30.810Z,4.40
2023-02-05T08:35:01.316Z,4.33
2023-02-05T08:37:31.780Z,4.93
2023-02-05T08:40:02.289Z,4.57
2023-02-05T08:42:32.387Z,4.80
2023-02-05T08:45:05.248Z,4.77
2023-02-05T08:47:33.251Z,5.03
2023-02-05T08:50:07.298Z,4.80
2023-02-05T08:52:37.376Z,5.20
2023-02-05T08:55:08.036Z,5.03
2023-02-05T08:57:38.188Z,5.17
2023-02-05T09:00:08.961Z,4.80
2023-02-05T09:02:41.680Z,4.90
2023-02-05T09:05:09.997Z,5.37
2023-02-05T09:07:42.519Z,5.37
2023-02-05T09:10:13.354Z,4.67
2023-02-05T09:12:46.990Z,5.30
2023-02-05T09:15:14.580Z,8.77
2023-02-05T09:17:44.765Z,4.83
2023-02-05T09:20:14.904Z,5.03
2023-02-05T09:22:45.094Z,5.10
2023-02-05T09:25:18.021Z,5.07
2023-02-05T09:27:48.826Z,8.70
2023-02-05T09:30:19.335Z,6.20
2023-02-05T09:32:49.345Z,5.77
2023-02-05T09:35:19.721Z,5.90
2023-02-05T09:37:50.097Z,6.00
2023-02-05T09:40:23.134Z,6.77
2023-02-05T09:43:19.564Z,5.67
2023-02-05T09:46:09.258Z,5.27
2023-02-05T09:48:51.762Z,6.70
2023-02-05T09:51:33.052Z,5.80
2023-02-05T09:54:17.523Z,6.00
2023-02-05T09:56:49.942Z,6.40
2023-02-05T09:59:25.347Z,6.30
2023-02-05T10:02:00.766Z,6.57
2023-02-05T10:04:31.738Z,5.20
2023-02-05T10:07:12.080Z,4.90
2023-02-05T10:09:49.398Z,5.97
2023-02-05T10:12:40.794Z,6.37
2023-02-05T10:15:37.870Z,6.17
2023-02-05T10:18:35.900Z,6.10
2023-02-05T10:21:01.929Z,7.50
2023-02-05T10:23:44.655Z,7.77
2023-02-05T10:26:19.967Z,5.87
2023-02-05T10:28:57.981Z,6.23
2023-02-05T10:31:38.306Z,6.93
2023-02-05T10:34:16.914Z,6.60
2023-02-05T10:36:49.216Z,10.73
2023-02-05T10:39:24.756Z,9.20
2023-02-05T10:42:02.106Z,9.00
2023-02-05T10:44:44.104Z,8.00
2023-02-05T10:47:19.306Z,7.87
2023-02-05T10:49:56.309Z,11.70
2023-02-05T10:52:26.598Z,6.60
2023-02-05T10:54:57.800Z,8.07
2023-02-05T10:57:30.809Z,6.00
2023-02-05T11:00:21.743Z,6.40
2023-02-05T11:02:59.970Z,5.80
2023-02-05T11:05:38.686Z,5.67
2023-02-05T11:08:34.878Z,6.80
2023-02-05T11:11:06.069Z,5.37
2023-02-05T11:13:39.400Z,6.23
2023-02-05T11:16:08.120Z,7.50
2023-02-05T11:18:45.674Z,7.67
2023-02-05T11:21:16.057Z,6.50
2023-02-05T11:23:54.407Z,6.73
2023-02-05T11:26:29.688Z,7.00
2023-02-05T11:29:18.426Z,6.67
2023-02-05T11:31:53.780Z,7.10
2023-02-05T11:34:25.292Z,6.50
2023-02-05T11:36:57.151Z,6.70
2023-02-05T11:39:38.268Z,10.07
2023-02-05T11:42:18.065Z,7.20
2023-02-05T11:44:54.401Z,8.60
2023-02-05T11:47:30.787Z,7.30
2023-02-05T11:50:03.296Z,6.23
2023-02-05T11:52:36.887Z,6.33
2023-02-05T11:55:24.836Z,6.50
2023-02-05T11:58:01.250Z,5.70
2023-02-05T12:00:31.965Z,6.23
2023-02-05T12:03:13.411Z,7.50
2023-02-05T12:06:08.642Z,7.37
2023-02-05T12:08:55.003Z,7.50
2023-02-05T12:11:55.786Z,7.00
2023-02-05T12:15:11.123Z,6.70
2023-02-05T12:17:50.629Z,7.03
2023-02-05T12:20:35.986Z,6.30
2023-02-05T12:23:23.513Z,7.87
2023-02-05T12:26:07.919Z,7.27
2023-02-05T12:28:49.283Z,6.33
2023-02-05T12:31:28.168Z,7.23
2023-02-05T12:34:02.202Z,13.03
2023-02-05T12:36:34.564Z,7.67
2023-02-05T12:42:19.563Z,8.60
2023-02-05T12:45:12.527Z,9.87
2023-02-05T12:48:00.875Z,8.63
2023-02-05T12:50:57.336Z,11.13
2023-02-05T12:53:52.061Z,11.33
2023-02-05T12:56:37.191Z,8.90
2023-02-05T12:59:20.137Z,9.77
2023-02-05T13:01:57.823Z,9.87
2023-02-05T13:04:38.856Z,10.60
2023-02-05T13:07:35.342Z,10.17
2023-02-05T13:10:45.023Z,9.17
2023-02-05T13:13:24.323Z,12.10
2023-02-05T13:15:58.409Z,10.43
2023-02-05T13:18:36.312Z,10.27
2023-02-05T13:21:23.585Z,11.20
2023-02-05T13:24:15.719Z,13.20
2023-02-05T13:27:05.242Z,11.97
2023-02-05T13:29:45.710Z,10.13
2023-02-05T13:32:19.877Z,11.53
2023-02-05T13:34:54.003Z,10.60
2023-02-05T13:37:36.905Z,11.03
2023-02-05T13:40:42.650Z,10.40
2023-02-05T13:43:28.818Z,10.37
2023-02-05T13:46:24.896Z,10.00
2023-02-05T13:49:28.494Z,10.40
2023-02-05T13:52:20.627Z,10.57
2023-02-05T13:55:12.131Z,10.30
2023-02-05T13:58:05.737Z,9.17
2023-02-05T14:00:38.609Z,8.70
2023-02-05T14:03:25.150Z,9.60
2023-02-05T14:05:56.811Z,8.40
2023-02-05T14:08:25.815Z,8.97
2023-02-05T14:11:00.984Z,9.83
2023-02-05T14:13:31.863Z,11.23
2023-02-05T14:16:24.850Z,10.27
2023-02-05T14:19:13.800Z,10.87
2023-02-05T14:21:44.097Z,11.50
2023-02-05T14:24:41.183Z,11.93
2023-02-05T14:27:33.252Z,11.97
2023-02-05T14:30:56.394Z,10.60
2023-02-05T14:33:43.206Z,12.27
2023-02-05T14:36:24.013Z,15.30
2023-02-05T14:39:24.698Z,13.50
2023-02-05T14:41:58.466Z,13.23
2023-02-05T14:44:31.995Z,14.43
2023-02-05T14:47:17.390Z,17.00
2023-02-05T14:50:02.861Z,19.57
2023-02-05T14:52:33.834Z,15.33
2023-02-05T14:55:15.817Z,19.60
2023-02-05T14:57:55.641Z,20.10
2023-02-05T15:00:35.718Z,13.90
2023-02-05T15:03:12.106Z,20.73
2023-02-05T15:05:48.154Z,15.43
2023-02-05T15:08:22.260Z,11.30
2023-02-05T15:10:58.670Z,12.07
2023-02-05T15:13:25.589Z,10.70
2023-02-05T15:16:10.296Z,11.07
2023-02-05T15:18:42.848Z,11.30
2023-02-05T15:21:20.455Z,11.23
2023-02-05T15:23:51.094Z,10.10
2023-02-05T15:26:41.494Z,10.43
2023-02-05T15:29:18.530Z,9.30
2023-02-05T15:31:54.005Z,10.77
2023-02-05T15:34:37.293Z,10.30
2023-02-05T15:37:20.911Z,9.77
2023-02-05T15:39:51.708Z,12.57
2023-02-05T15:42:37.161Z,9.87
2023-02-05T15:45:27.517Z,11.33
2023-02-05T15:48:12.254Z,9.77
2023-02-05T15:50:57.292Z,10.43
2023-02-05T15:53:26.424Z,10.40
2023-02-05T15:56:04.991Z,12.20
2023-02-05T15:58:31.222Z,10.33
2023-02-05T16:00:57.616Z,9.83
2023-02-05T16:03:27.011Z,9.97
2023-02-05T16:05:55.501Z,10.43
2023-02-05T16:08:29.320Z,11.03
2023-02-05T16:11:01.055Z,10.10
2023-02-05T16:13:36.122Z,11.67
2023-02-05T16:16:09.128Z,11.77
2023-02-05T16:18:48.476Z,11.63
2023-02-05T16:21:29.969Z,12.47
2023-02-05T16:24:02.027Z,13.45
2023-02-05T16:26:40.172Z,13.10
2023-02-05T16:29:26.790Z,13.20
2023-02-05T16:32:02.898Z,17.90
2023-02-05T16:34:35.872Z,12.90
2023-02-05T16:37:10.087Z,11.47
2023-02-05T16:39:54.607Z,15.53
2023-02-05T16:42:31.140Z,14.07
2023-02-05T16:45:10.704Z,13.13
2023-02-05T16:47:44.100Z,14.07
2023-02-05T16:50:48.271Z,16.47
2023-02-05T16:53:21.752Z,12.20
2023-02-05T16:55:57.613Z,14.17
2023-02-05T16:58:37.056Z,13.73
2023-02-05T17:01:07.765Z,15.00
2023-02-05T17:03:40.582Z,13.47
2023-02-05T17:06:13.435Z,16.40
2023-02-05T17:08:41.414Z,14.93
2023-02-05T17:11:32.114Z,17.53
2023-02-05T17:14:19.671Z,17.80
2023-02-05T17:16:55.245Z,16.13
2023-02-05T17:19:32.462Z,16.37
2023-02-05T17:22:15.024Z,25.13
2023-02-05T17:24:47.755Z,18.57
2023-02-05T17:27:38.430Z,20.97
2023-02-05T17:30:15.972Z,16.60
2023-02-05T17:32:51.864Z,19.43
2023-02-05T17:35:24.979Z,20.47
2023-02-05T17:37:56.231Z,19.53
2023-02-05T17:40:31.692Z,19.77
2023-02-05T17:43:02.413Z,22.13
2023-02-05T17:45:36.570Z,23.77
2023-02-05T17:48:07.388Z,26.53
2023-02-05T17:50:38.342Z,20.80
2023-02-05T17:53:09.487Z,27.47
2023-02-05T17:55:40.297Z,25.53
2023-02-05T17:58:13.424Z,25.77
2023-02-05T18:00:44.944Z,21.80
2023-02-05T18:03:15.776Z,22.47
2023-02-05T18:05:51.282Z,27.90
2023-02-05T18:08:23.493Z,19.37
2023-02-05T18:10:54.798Z,24.00
2023-02-05T18:13:25.152Z,25.70
2023-02-05T18:16:00.795Z,24.00
2023-02-05T18:18:32.419Z,19.53
2023-02-05T18:21:02.030Z,22.13
2023-02-05T18:23:32.086Z,24.93
2023-02-05T18:26:04.215Z,22.83
2023-02-05T18:28:32.502Z,23.90
2023-02-05T18:31:08.975Z,21.40
2023-02-05T18:33:38.994Z,20.47
2023-02-05T18:36:12.124Z,26.17
2023-02-05T18:38:42.270Z,18.13
2023-02-05T18:41:12.891Z,18.27
2023-02-05T18:43:41.263Z,19.20
2023-02-05T18:46:13.937Z,22.37
2023-02-05T18:48:50.974Z,21.13
2023-02-05T18:51:19.708Z,18.53
2023-02-05T18:53:48.506Z,17.80
2023-02-05T18:56:21.375Z,18.57
2023-02-05T18:59:00.247Z,21.27
2023-02-05T19:01:28.524Z,19.27
2023-02-05T19:03:56.352Z,19.30
2023-02-05T19:06:26.149Z,19.75
2023-02-05T19:08:56.472Z,16.93
2023-02-05T19:11:27.329Z,18.53
2023-02-05T19:14:03.729Z,21.70
2023-02-05T19:16:31.718Z,16.70
2023-02-05T19:18:58.240Z,19.87
2023-02-05T19:21:29.844Z,15.53
2023-02-05T19:24:06.372Z,19.23
2023-02-05T19:26:36.024Z,19.90
2023-02-05T19:29:06.554Z,17.30
2023-02-05T19:31:37.238Z,19.20
2023-02-05T19:34:07.487Z,14.73
2023-02-05T19:36:38.176Z,17.20
2023-02-05T19:39:08.826Z,14.00
2023-02-05T19:41:38.809Z,15.33
2023-02-05T19:44:08.883Z,15.67
2023-02-05T19:46:43.352Z,18.30
2023-02-05T19:49:20.365Z,19.40
2023-02-05T19:51:51.094Z,22.43
2023-02-05T19:54:19.481Z,22.17
2023-02-05T19:56:47.884Z,19.10
2023-02-05T19:59:16.120Z,23.77
2023-02-05T20:01:46.874Z,24.00
2023-02-05T20:04:17.513Z,23.13
2023-02-05T20:06:45.514Z,21.13
2023-02-05T20:09:15.574Z,21.80
2023-02-05T20:11:47.297Z,19.23
2023-02-05T20:14:16.300Z,22.93
2023-02-05T20:16:49.323Z,21.77
2023-02-05T20:19:19.182Z,20.30
2023-02-05T20:21:49.392Z,19.67
2023-02-05T20:24:19.994Z,27.63
2023-02-05T20:26:52.302Z,20.63
2023-02-05T20:29:38.769Z,20.30
2023-02-05T20:32:12.323Z,20.43
2023-02-05T20:34:44.030Z,17.70
2023-02-05T20:37:11.192Z,17.27
2023-02-05T20:39:41.192Z,14.90
2023-02-05T20:42:15.493Z,18.27
2023-02-05T20:44:42.891Z,13.90
2023-02-05T20:47:13.398Z,16.60
2023-02-05T20:49:48.164Z,14.10
2023-02-05T20:52:14.223Z,13.70
2023-02-05T20:54:40.644Z,13.50
2023-02-05T20:57:07.120Z,16.77
2023-02-05T20:59:42.908Z,16.03
2023-02-05T21:02:09.783Z,17.80
2023-02-05T21:04:36.338Z,17.20
2023-02-05T21:07:02.588Z,17.33
2023-02-05T21:09:36.234Z,16.97
2023-02-05T21:12:06.906Z,16.47
2023-02-05T21:14:38.173Z,21.30
2023-02-05T21:17:09.690Z,17.23
2023-02-05T21:19:38.090Z,16.27
2023-02-05T21:22:08.126Z,17.73
2023-02-05T21:24:38.104Z,17.83
2023-02-05T21:27:11.934Z,15.33
2023-02-05T21:29:42.923Z,16.50
2023-02-05T21:32:12.377Z,20.80
2023-02-05T21:34:43.205Z,18.57
2023-02-05T21:37:13.485Z,18.57
2023-02-05T21:39:43.717Z,16.77
2023-02-05T21:42:13.897Z,19.00
2023-02-05T21:44:50.194Z,15.77
2023-02-05T21:47:17.644Z,19.50
2023-02-05T21:49:47.907Z,18.67
2023-02-05T21:52:18.903Z,18.30
2023-02-05T21:54:50.066Z,21.00
2023-02-05T21:57:24.233Z,18.50
2023-02-05T21:59:51.325Z,15.33
2023-02-05T22:02:26.315Z,19.27
2023-02-05T22:04:57.386Z,19.60
2023-02-05T22:07:27.919Z,18.00
2023-02-05T22:09:58.554Z,19.63
2023-02-05T22:12:28.792Z,20.10
2023-02-05T22:14:58.851Z,16.13
2023-02-05T22:17:29.236Z,19.87
2023-02-05T22:20:04.090Z,19.00
2023-02-05T22:22:35.690Z,15.90
2023-02-05T22:25:04.855Z,18.27
2023-02-05T22:27:35.377Z,20.07
2023-02-05T22:30:05.616Z,16.70
2023-02-05T22:32:35.878Z,21.90
2023-02-05T22:35:06.685Z,22.47
2023-02-05T22:37:41.876Z,19.07
2023-02-05T22:40:12.254Z,18.10
2023-02-05T22:42:42.796Z,24.40
2023-02-05T22:45:15.689Z,18.47
2023-02-05T22:47:46.657Z,21.93
2023-02-05T22:50:18.914Z,26.80
2023-02-05T22:52:50.398Z,23.27
2023-02-05T22:55:20.707Z,30.90
2023-02-05T22:57:51.531Z,26.03
2023-02-05T23:00:22.011Z,20.83
2023-02-05T23:02:59.491Z,20.40
2023-02-05T23:05:30.727Z,22.83
2023-02-05T23:07:57.868Z,19.73
2023-02-05T23:10:28.664Z,19.27
2023-02-05T23:12:59.358Z,22.63
2023-02-05T23:15:30.889Z,24.90
2023-02-05T23:18:02.551Z,22.13
2023-02-05T23:20:34.383Z,24.00
2023-02-05T23:23:05.621Z,21.17
2023-02-05T23:25:36.892Z,22.63
2023-02-05T23:28:10.032Z,35.37
2023-02-05T23:30:41.547Z,28.37
2023-02-05T23:33:11.340Z,22.03
2023-02-05T23:35:41.131Z,24.67
2023-02-05T23:38:11.562Z,31.50
2023-02-05T23:40:41.464Z,21.07
2023-02-05T23:43:11.492Z,26.27
2023-02-05T23:45:42.248Z,31.33
2023-02-05T23:48:11.936Z,32.37
2023-02-05T23:50:43.009Z,30.93
2023-02-05T23:53:12.478Z,28.00
2023-02-05T23:55:47.518Z,23.83
2023-02-05T23:58:18.374Z,24.17
